Archival Weather

Chicago O'Hare International

Chicago, Illinois (KORD)

Report from: Friday, September 23, 2022 2:51 AM CDT
Current time: Wednesday, September 28, 2022 5:19 AM CDT

Current weather
Weather history
Weather forecast

Temperature10.6°C (51.1°F)
Dew point6.7°C (44.1°F)
Winds 3 kts (1.5 m/s, 3.5 mph) North-Northwest (330°)
Visibility10 mi. (16.1 km)
Clouds Ceiling: Broken clouds 3,800 ft. (1,158 m)
Broken clouds 25,000 ft. (7,620 m)
Altimeter30.23 in.Hg (1024 mB)
Relative humidity77 %
Density altitude-737 ft. (-225 m)
Sea-level pressure102.4 kPa (1024 mB, 30.23 in.Hg)
Remarks Automated weather observing station with precipitation discriminator
Flight conditions Visual Meteorological Conditions
Raw dataKORD 230751Z 33003KT 10SM BKN038 BKN250 11/07 A3023 RMK AO2 SLP238 T01060067
An error has occurred. This application may no longer respond until reloaded. Reload 🗙